createdAt,value
2023-05-20T00:00:57.121Z,100423.20
2023-05-20T00:03:24.392Z,100419.05
2023-05-20T00:05:51.631Z,100419.93
2023-05-20T00:08:19.493Z,100417.52
2023-05-20T00:10:46.637Z,100419.99
2023-05-20T00:13:13.805Z,100422.73
2023-05-20T00:15:41.170Z,100422.74
2023-05-20T00:18:08.509Z,100423.45
2023-05-20T00:20:35.695Z,100418.27
2023-05-20T00:23:03.133Z,100419.52
2023-05-20T00:25:32.127Z,100423.38
2023-05-20T00:27:59.493Z,100425.19
2023-05-20T00:30:26.778Z,100423.26
2023-05-20T00:32:54.315Z,100421.73
2023-05-20T00:35:21.765Z,100426.77
2023-05-20T00:37:49.113Z,100422.89
2023-05-20T00:40:16.515Z,100427.52
2023-05-20T00:42:44.037Z,100418.05
2023-05-20T00:45:11.431Z,100429.34
2023-05-20T00:47:39.566Z,100425.67
2023-05-20T00:50:10.460Z,100422.08
2023-05-20T00:52:39.164Z,100422.23
2023-05-20T00:55:06.620Z,100428.15
2023-05-20T00:57:33.776Z,100423.80
2023-05-20T01:00:02.033Z,100419.09
2023-05-20T01:02:29.856Z,100413.05
2023-05-20T01:04:57.833Z,100412.59
2023-05-20T01:07:26.234Z,100426.28
2023-05-20T01:09:54.539Z,100418.35
2023-05-20T01:12:28.481Z,100415.88
2023-05-20T01:15:13.259Z,100420.08
2023-05-20T01:17:45.428Z,100421.42
2023-05-20T01:20:15.399Z,100419.48
2023-05-20T01:22:57.204Z,100417.01
2023-05-20T01:25:27.689Z,100426.80
2023-05-20T01:28:00.969Z,100424.51
2023-05-20T01:30:35.895Z,100419.43
2023-05-20T01:33:08.611Z,100426.29
2023-05-20T01:35:36.960Z,100424.58
2023-05-20T01:38:06.836Z,100418.72
2023-05-20T01:40:35.864Z,100414.16
2023-05-20T01:43:03.996Z,100412.14
2023-05-20T01:45:31.933Z,100407.19
2023-05-20T01:48:00.107Z,100407.71
2023-05-20T01:50:27.434Z,100410.59
2023-05-20T01:52:54.582Z,100422.51
2023-05-20T01:55:21.916Z,100429.22
2023-05-20T01:57:49.070Z,100430.14
2023-05-20T02:00:16.388Z,100430.47
2023-05-20T02:02:45.091Z,100430.08
2023-05-20T02:05:13.340Z,100430.63
2023-05-20T02:07:43.020Z,100431.47
2023-05-20T02:10:10.902Z,100430.42
2023-05-20T02:12:38.286Z,100432.48
2023-05-20T02:15:06.275Z,100427.67
2023-05-20T02:17:33.475Z,100433.10
2023-05-20T02:20:00.835Z,100437.52
2023-05-20T02:22:28.003Z,100438.73
2023-05-20T02:24:55.269Z,100445.08
2023-05-20T02:27:22.504Z,100448.38
2023-05-20T02:29:49.624Z,100446.45
2023-05-20T02:32:20.982Z,100450.25
2023-05-20T02:34:48.209Z,100455.70
2023-05-20T02:37:15.373Z,100454.02
2023-05-20T02:39:42.561Z,100449.08
2023-05-20T02:42:09.802Z,100454.44
2023-05-20T02:44:36.921Z,100454.33
2023-05-20T02:47:04.331Z,100453.95
2023-05-20T02:49:31.659Z,100454.97
2023-05-20T02:51:59.247Z,100452.50
2023-05-20T02:54:26.537Z,100454.44
2023-05-20T02:56:53.740Z,100454.02
2023-05-20T02:59:20.878Z,100455.21
2023-05-20T03:01:48.073Z,100452.44
2023-05-20T03:04:15.387Z,100446.55
2023-05-20T03:06:44.848Z,100452.61
2023-05-20T03:09:12.166Z,100458.13
2023-05-20T03:11:39.966Z,100456.98
2023-05-20T03:14:07.134Z,100452.91
2023-05-20T03:16:35.680Z,100456.36
2023-05-20T03:19:03.256Z,100459.55
2023-05-20T03:21:30.562Z,100461.67
2023-05-20T03:23:58.020Z,100463.31
2023-05-20T03:26:25.981Z,100467.98
2023-05-20T03:28:53.045Z,100458.55
2023-05-20T03:31:20.454Z,100457.95
2023-05-20T03:33:47.812Z,100457.73
2023-05-20T03:36:14.929Z,100452.89
2023-05-20T03:38:42.125Z,100457.16
2023-05-20T03:41:09.366Z,100457.39
2023-05-20T03:43:36.663Z,100460.10
2023-05-20T03:46:03.791Z,100459.41
2023-05-20T03:48:30.973Z,100459.30
2023-05-20T03:50:58.208Z,100452.60
2023-05-20T03:53:25.908Z,100452.95
2023-05-20T03:55:53.370Z,100447.10
2023-05-20T03:58:23.534Z,100449.20
2023-05-20T04:00:50.738Z,100447.30
2023-05-20T04:03:18.589Z,100446.05
2023-05-20T04:05:46.390Z,100444.70
2023-05-20T04:08:19.168Z,100444.71
2023-05-20T04:10:46.516Z,100452.02
2023-05-20T04:13:14.465Z,100463.15
2023-05-20T04:15:42.229Z,100459.51
2023-05-20T04:18:10.585Z,100457.63
2023-05-20T04:20:38.374Z,100464.45
2023-05-20T04:23:05.778Z,100468.98
2023-05-20T04:25:33.548Z,100459.86
2023-05-20T04:28:00.937Z,100460.70
2023-05-20T04:30:29.246Z,100460.71
2023-05-20T04:32:56.428Z,100459.02
2023-05-20T04:35:26.541Z,100461.30
2023-05-20T04:37:56.005Z,100463.91
2023-05-20T04:40:23.303Z,100459.61
2023-05-20T04:42:51.185Z,100461.34
2023-05-20T04:45:19.039Z,100463.95
2023-05-20T04:47:46.260Z,100463.89
2023-05-20T04:50:14.989Z,100461.23
2023-05-20T04:52:43.452Z,100462.15
2023-05-20T04:55:12.348Z,100462.27
2023-05-20T04:57:42.466Z,100462.61
2023-05-20T05:00:13.606Z,100457.01
2023-05-20T05:02:41.743Z,100460.70
2023-05-20T05:05:09.092Z,100461.15
2023-05-20T05:07:36.725Z,100465.20
2023-05-20T05:10:04.122Z,100460.85
2023-05-20T05:12:31.906Z,100466.34
2023-05-20T05:14:59.521Z,100463.92
2023-05-20T05:17:29.138Z,100462.34
2023-05-20T05:19:57.395Z,100460.08
2023-05-20T05:22:24.782Z,100457.46
2023-05-20T05:24:52.597Z,100456.21
2023-05-20T05:27:19.808Z,100462.78
2023-05-20T05:29:46.911Z,100461.66
2023-05-20T05:32:13.998Z,100460.91
2023-05-20T05:34:41.134Z,100461.17
2023-05-20T05:37:08.256Z,100461.92
2023-05-20T05:39:37.956Z,100460.92
2023-05-20T05:42:05.612Z,100456.10
2023-05-20T05:44:36.693Z,100456.59
2023-05-20T05:47:07.059Z,100454.22
2023-05-20T05:49:35.136Z,100452.41
2023-05-20T05:52:03.357Z,100453.40
2023-05-20T05:54:30.543Z,100451.25
2023-05-20T05:56:57.827Z,100446.30
2023-05-20T05:59:26.084Z,100451.83
2023-05-20T06:02:07.107Z,100448.36
2023-05-20T06:04:34.489Z,100450.21
2023-05-20T06:07:02.446Z,100449.89
2023-05-20T06:09:30.495Z,100446.69
2023-05-20T06:11:58.164Z,100445.71
2023-05-20T06:14:25.293Z,100447.90
2023-05-20T06:16:52.811Z,100445.03
2023-05-20T06:19:20.087Z,100444.98
2023-05-20T06:21:47.254Z,100447.52
2023-05-20T06:24:14.709Z,100447.74
2023-05-20T06:26:42.057Z,100446.81
2023-05-20T06:29:09.246Z,100446.48
2023-05-20T06:31:36.801Z,100443.89
2023-05-20T06:34:04.277Z,100438.05
2023-05-20T06:36:33.629Z,100435.48
2023-05-20T06:39:12.664Z,100437.86
2023-05-20T06:41:43.250Z,100443.17
2023-05-20T06:44:10.971Z,100445.03
2023-05-20T06:46:58.816Z,100446.31
2023-05-20T06:49:27.279Z,100447.18
2023-05-20T06:51:55.660Z,100445.59
2023-05-20T06:54:23.014Z,100448.01
2023-05-20T06:56:50.120Z,100448.11
2023-05-20T06:59:17.374Z,100453.88
2023-05-20T07:01:44.827Z,100456.90
2023-05-20T07:04:12.877Z,100453.89
2023-05-20T07:06:40.251Z,100458.90
2023-05-20T07:09:07.321Z,100462.14
2023-05-20T07:11:34.500Z,100462.81
2023-05-20T07:14:01.791Z,100461.31
2023-05-20T07:16:32.660Z,100465.92
2023-05-20T07:19:00.206Z,100470.34
2023-05-20T07:21:27.397Z,100463.81
2023-05-20T07:24:17.968Z,100459.93
2023-05-20T07:26:45.114Z,100454.65
2023-05-20T07:29:12.435Z,100456.96
2023-05-20T07:31:39.854Z,100460.14
2023-05-20T07:34:07.450Z,100462.31
2023-05-20T07:36:34.576Z,100460.06
2023-05-20T07:39:09.029Z,100462.77
2023-05-20T07:41:39.926Z,100463.16
2023-05-20T07:44:08.900Z,100460.49
2023-05-20T07:46:39.348Z,100457.65
2023-05-20T07:49:07.296Z,100453.86
2023-05-20T07:51:34.944Z,100447.96
2023-05-20T07:54:02.123Z,100448.48
2023-05-20T07:56:29.687Z,100439.67
2023-05-20T07:58:58.715Z,100440.68
2023-05-20T08:01:28.985Z,100438.54
2023-05-20T08:03:56.500Z,100439.60
2023-05-20T08:06:27.296Z,100434.66
2023-05-20T08:08:56.258Z,100435.83
2023-05-20T08:11:28.355Z,100439.23
2023-05-20T08:13:55.658Z,100433.44
2023-05-20T08:16:23.268Z,100430.23
2023-05-20T08:18:50.673Z,100430.17
2023-05-20T08:21:20.085Z,100433.92
2023-05-20T08:23:47.292Z,100434.98
2023-05-20T08:26:14.463Z,100436.20
2023-05-20T08:28:42.349Z,100436.42
2023-05-20T08:31:11.148Z,100433.51
2023-05-20T08:33:38.449Z,100434.86
2023-05-20T08:36:08.467Z,100433.27
2023-05-20T08:38:36.776Z,100430.13
2023-05-20T08:41:04.277Z,100437.02
2023-05-20T08:43:32.846Z,100434.38
2023-05-20T08:46:03.120Z,100435.75
2023-05-20T08:48:30.926Z,100436.61
2023-05-20T08:50:58.340Z,100434.55
2023-05-20T08:53:27.050Z,100433.89
2023-05-20T08:56:00.849Z,100431.42
2023-05-20T08:58:32.938Z,100430.11
2023-05-20T09:01:00.133Z,100433.44
2023-05-20T09:03:27.936Z,100431.86
2023-05-20T09:06:07.021Z,100427.40
2023-05-20T09:08:34.761Z,100432.55
2023-05-20T09:11:02.729Z,100432.48
2023-05-20T09:13:32.936Z,100432.23
2023-05-20T09:16:02.359Z,100430.49
2023-05-20T09:18:30.127Z,100429.67
2023-05-20T09:20:57.718Z,100427.91
2023-05-20T09:23:28.310Z,100420.95
2023-05-20T09:25:55.426Z,100411.60
2023-05-20T09:28:26.890Z,100409.88
2023-05-20T09:30:59.786Z,100407.16
2023-05-20T09:33:32.381Z,100402.29
2023-05-20T09:36:08.458Z,100401.19
2023-05-20T09:38:40.085Z,100396.34
2023-05-20T09:41:11.743Z,100399.66
2023-05-20T09:43:42.757Z,100393.09
2023-05-20T09:46:11.094Z,100393.82
2023-05-20T09:48:38.808Z,100389.52
2023-05-20T09:51:08.253Z,100392.81
2023-05-20T09:53:40.031Z,100391.65
2023-05-20T09:56:07.566Z,100394.33
2023-05-20T09:58:36.803Z,100394.38
2023-05-20T10:01:04.082Z,100393.71
2023-05-20T10:03:33.788Z,100391.83
2023-05-20T10:06:17.675Z,100388.98
2023-05-20T10:08:55.752Z,100392.56
2023-05-20T10:11:41.737Z,100387.90
2023-05-20T10:14:33.899Z,100386.58
2023-05-20T10:17:10.837Z,100388.34
2023-05-20T10:19:38.796Z,100383.95
2023-05-20T10:22:10.745Z,100384.42
2023-05-20T10:24:38.470Z,100371.95
2023-05-20T10:27:09.930Z,100372.06
2023-05-20T10:29:50.550Z,100373.65
2023-05-20T10:32:27.866Z,100372.44
2023-05-20T10:35:01.513Z,100367.61
2023-05-20T10:37:30.939Z,100365.73
2023-05-20T10:40:07.540Z,100359.64
2023-05-20T10:42:34.692Z,100355.63
2023-05-20T10:45:01.795Z,100352.73
2023-05-20T10:47:29.199Z,100357.65
2023-05-20T10:49:56.746Z,100351.91
2023-05-20T10:52:25.260Z,100352.34
2023-05-20T10:54:59.821Z,100350.81
2023-05-20T10:57:28.319Z,100350.30
2023-05-20T10:59:56.576Z,100350.59
2023-05-20T11:02:27.395Z,100348.15
2023-05-20T11:05:00.950Z,100351.27
2023-05-20T11:07:32.612Z,100353.82
2023-05-20T11:10:00.998Z,100356.85
2023-05-20T11:12:28.612Z,100353.58
2023-05-20T11:14:55.791Z,100357.55
2023-05-20T11:17:22.935Z,100351.35
2023-05-20T11:19:51.665Z,100349.69
2023-05-20T11:22:18.845Z,100348.29
2023-05-20T11:24:46.743Z,100344.29
2023-05-20T11:27:13.808Z,100345.03
2023-05-20T11:29:41.195Z,100339.60
2023-05-20T11:32:14.003Z,100335.41
2023-05-20T11:34:43.537Z,100340.80
2023-05-20T11:37:12.257Z,100338.30
2023-05-20T11:39:39.869Z,100344.30
2023-05-20T11:42:07.035Z,100344.98
2023-05-20T11:44:34.536Z,100345.35
2023-05-20T11:47:03.512Z,100344.67
2023-05-20T11:49:31.401Z,100343.33
2023-05-20T11:51:59.057Z,100343.89
2023-05-20T11:54:26.645Z,100337.92
2023-05-20T11:56:56.057Z,100338.96
2023-05-20T11:59:25.394Z,100336.98
2023-05-20T12:01:52.731Z,100331.45
2023-05-20T12:04:20.027Z,100329.23
2023-05-20T12:06:47.289Z,100330.00
2023-05-20T12:09:14.448Z,100327.27
2023-05-20T12:11:42.392Z,100320.07
2023-05-20T12:14:10.142Z,100317.45
2023-05-20T12:16:38.295Z,100315.71
2023-05-20T12:19:05.841Z,100317.81
2023-05-20T12:21:33.272Z,100317.06
2023-05-20T12:24:01.328Z,100309.04
2023-05-20T12:26:29.903Z,100305.40
2023-05-20T12:28:57.407Z,100300.21
2023-05-20T12:31:25.467Z,100302.93
2023-05-20T12:33:52.739Z,100299.05
2023-05-20T12:36:19.913Z,100297.67
2023-05-20T12:38:47.339Z,100294.67
2023-05-20T12:41:22.148Z,100292.27
2023-05-20T12:43:49.336Z,100291.46
2023-05-20T12:46:16.554Z,100288.67
2023-05-20T12:48:43.704Z,100291.85
2023-05-20T12:51:10.809Z,100292.74
2023-05-20T12:53:37.874Z,100291.34
2023-05-20T12:56:06.176Z,100285.39
2023-05-20T12:58:34.263Z,100285.88
2023-05-20T13:01:01.719Z,100286.45
2023-05-20T13:03:28.946Z,100280.81
2023-05-20T13:05:56.984Z,100274.06
2023-05-20T13:08:24.419Z,100272.92
2023-05-20T13:10:51.603Z,100273.18
2023-05-20T13:13:21.893Z,100272.71
2023-05-20T13:15:49.786Z,100273.56
2023-05-20T13:18:17.438Z,100272.73
2023-05-20T13:20:44.552Z,100277.02
2023-05-20T13:23:12.294Z,100276.63
2023-05-20T13:25:39.450Z,100274.19
2023-05-20T13:28:06.745Z,100274.08
2023-05-20T13:30:34.498Z,100269.78
2023-05-20T13:33:01.977Z,100269.94
2023-05-20T13:35:29.096Z,100267.98
2023-05-20T13:37:56.196Z,100259.99
2023-05-20T13:40:23.868Z,100263.77
2023-05-20T13:42:51.261Z,100259.38
2023-05-20T13:45:18.980Z,100257.91
2023-05-20T13:47:46.651Z,100257.13
2023-05-20T13:50:13.954Z,100259.21
2023-05-20T13:52:41.491Z,100252.98
2023-05-20T13:55:08.821Z,100253.42
2023-05-20T13:57:35.949Z,100257.79
2023-05-20T14:00:04.476Z,100254.54
2023-05-20T14:02:36.148Z,100254.03
2023-05-20T14:05:03.661Z,100251.68
2023-05-20T14:07:31.037Z,100246.02
2023-05-20T14:09:58.219Z,100247.06
2023-05-20T14:12:25.388Z,100246.38
2023-05-20T14:14:52.910Z,100239.96
2023-05-20T14:17:20.078Z,100236.72
2023-05-20T14:19:47.376Z,100236.95
2023-05-20T14:22:15.832Z,100238.43
2023-05-20T14:24:43.090Z,100234.29
2023-05-20T14:27:11.715Z,100235.05
2023-05-20T14:29:38.815Z,100237.03
2023-05-20T14:32:06.495Z,100236.05
2023-05-20T14:34:33.608Z,100234.47
2023-05-20T14:37:05.856Z,100233.14
2023-05-20T14:39:32.988Z,100232.09
2023-05-20T14:42:00.144Z,100230.48
2023-05-20T14:44:27.478Z,100229.16
2023-05-20T14:46:54.698Z,100225.71
2023-05-20T14:49:22.024Z,100228.74
2023-05-20T14:51:49.129Z,100231.88
2023-05-20T14:54:16.806Z,100231.27
2023-05-20T14:56:43.910Z,100232.10
2023-05-20T14:59:11.685Z,100235.73
2023-05-20T15:01:38.878Z,100237.00
2023-05-20T15:04:06.294Z,100232.98
2023-05-20T15:06:35.996Z,100233.20
2023-05-20T15:09:03.934Z,100230.31
2023-05-20T15:11:31.049Z,100233.23
2023-05-20T15:13:59.134Z,100230.71
2023-05-20T15:16:27.302Z,100228.08
2023-05-20T15:18:54.402Z,100228.30
2023-05-20T15:21:21.799Z,100230.26
2023-05-20T15:23:48.922Z,100226.13
2023-05-20T15:26:16.001Z,100226.36
2023-05-20T15:28:43.068Z,100226.61
2023-05-20T15:31:10.203Z,100226.17
2023-05-20T15:33:37.398Z,100227.01
2023-05-20T15:36:04.928Z,100226.88
2023-05-20T15:38:32.070Z,100227.09
2023-05-20T15:40:59.975Z,100225.33
2023-05-20T15:43:27.120Z,100223.80
2023-05-20T15:45:54.904Z,100222.08
2023-05-20T15:48:22.779Z,100221.64
2023-05-20T15:50:49.962Z,100217.80
2023-05-20T15:53:17.044Z,100216.77
2023-05-20T15:55:44.956Z,100219.81
2023-05-20T15:58:12.903Z,100214.48
2023-05-20T16:00:40.167Z,100218.75
2023-05-20T16:03:08.556Z,100219.98
2023-05-20T16:05:36.097Z,100221.20
2023-05-20T16:08:03.460Z,100225.12
2023-05-20T16:10:33.364Z,100228.83
2023-05-20T16:13:01.465Z,100231.58
2023-05-20T16:15:31.848Z,100228.40
2023-05-20T16:17:59.590Z,100229.85
2023-05-20T16:20:26.833Z,100235.08
2023-05-20T16:22:53.959Z,100235.98
2023-05-20T16:25:21.120Z,100234.66
2023-05-20T16:27:48.232Z,100238.30
2023-05-20T16:30:15.551Z,100237.71
2023-05-20T16:32:42.705Z,100237.45
2023-05-20T16:35:10.161Z,100243.21
2023-05-20T16:37:37.302Z,100246.74
2023-05-20T16:40:05.006Z,100243.61
2023-05-20T16:42:32.126Z,100242.98
2023-05-20T16:44:59.246Z,100243.10
2023-05-20T16:47:26.691Z,100236.67
2023-05-20T16:49:53.845Z,100239.25
2023-05-20T16:52:21.101Z,100232.74
2023-05-20T16:54:48.398Z,100233.06
2023-05-20T16:57:16.541Z,100233.11
2023-05-20T16:59:43.629Z,100231.34
2023-05-20T17:02:11.107Z,100230.77
2023-05-20T17:04:38.773Z,100227.64
2023-05-20T17:07:10.194Z,100230.33
2023-05-20T17:09:37.728Z,100229.42
2023-05-20T17:12:05.710Z,100227.79
2023-05-20T17:14:32.926Z,100227.60
2023-05-20T17:17:00.098Z,100231.97
2023-05-20T17:19:27.396Z,100231.99
2023-05-20T17:21:54.682Z,100232.94
2023-05-20T17:24:21.741Z,100234.99
2023-05-20T17:26:53.363Z,100234.50
2023-05-20T17:29:20.840Z,100238.39
2023-05-20T17:31:48.149Z,100240.14
2023-05-20T17:34:15.477Z,100242.20
2023-05-20T17:36:42.978Z,100243.59
2023-05-20T17:39:10.434Z,100244.02
2023-05-20T17:41:37.661Z,100248.80
2023-05-20T17:44:05.013Z,100247.17
2023-05-20T17:46:32.144Z,100246.98
2023-05-20T17:48:59.332Z,100251.70
2023-05-20T17:51:27.048Z,100253.33
2023-05-20T17:53:54.367Z,100259.58
2023-05-20T17:56:21.549Z,100260.21
2023-05-20T17:58:48.666Z,100260.39
2023-05-20T18:01:15.925Z,100256.05
2023-05-20T18:03:43.232Z,100260.58
2023-05-20T18:06:10.851Z,100263.45
2023-05-20T18:08:37.974Z,100266.09
2023-05-20T18:11:05.052Z,100265.55
2023-05-20T18:13:32.162Z,100270.38
2023-05-20T18:15:59.457Z,100272.65
2023-05-20T18:18:26.738Z,100277.44
2023-05-20T18:20:53.864Z,100275.66
2023-05-20T18:23:21.297Z,100276.56
2023-05-20T18:25:48.496Z,100279.52
2023-05-20T18:28:15.910Z,100276.77
2023-05-20T18:30:43.071Z,100276.00
2023-05-20T18:33:10.336Z,100278.17
2023-05-20T18:35:37.872Z,100272.73
2023-05-20T18:38:05.071Z,100274.03
2023-05-20T18:40:32.204Z,100274.06
2023-05-20T18:42:59.551Z,100276.41
2023-05-20T18:45:26.806Z,100274.98
2023-05-20T18:47:54.781Z,100277.67
2023-05-20T18:50:22.029Z,100281.35
2023-05-20T18:52:49.169Z,100279.50
2023-05-20T18:55:16.834Z,100281.18
2023-05-20T18:57:44.039Z,100281.42
2023-05-20T19:00:12.639Z,100284.05
2023-05-20T19:02:41.268Z,100282.85
2023-05-20T19:05:09.955Z,100280.17
2023-05-20T19:07:41.223Z,100277.84
2023-05-20T19:10:09.030Z,100277.86
2023-05-20T19:12:36.131Z,100276.92
2023-05-20T19:15:05.364Z,100275.35
2023-05-20T19:17:32.614Z,100276.58
2023-05-20T19:19:59.772Z,100276.61
2023-05-20T19:22:26.934Z,100272.23
2023-05-20T19:24:53.974Z,100272.34
2023-05-20T19:27:21.090Z,100267.98
2023-05-20T19:29:48.223Z,100269.96
2023-05-20T19:32:15.736Z,100266.59
2023-05-20T19:34:43.998Z,100270.02
2023-05-20T19:37:11.695Z,100266.96
2023-05-20T19:39:39.126Z,100266.66
2023-05-20T19:42:06.401Z,100261.77
2023-05-20T19:44:33.700Z,100261.61
2023-05-20T19:47:00.966Z,100261.81
2023-05-20T19:49:29.623Z,100260.75
2023-05-20T19:51:57.194Z,100258.67
2023-05-20T19:54:24.309Z,100258.83
2023-05-20T19:56:51.431Z,100256.93
2023-05-20T19:59:18.563Z,100251.55
2023-05-20T20:01:45.719Z,100251.91
2023-05-20T20:04:13.420Z,100251.14
2023-05-20T20:06:40.666Z,100245.75
2023-05-20T20:09:08.672Z,100246.06
2023-05-20T20:11:36.160Z,100244.10
2023-05-20T20:14:03.310Z,100242.96
2023-05-20T20:16:30.706Z,100241.95
2023-05-20T20:18:57.967Z,100240.05
2023-05-20T20:21:25.997Z,100242.59
2023-05-20T20:23:53.594Z,100241.48
2023-05-20T20:26:23.799Z,100244.69
2023-05-20T20:28:50.947Z,100246.05
2023-05-20T20:31:18.138Z,100247.73
2023-05-20T20:33:45.380Z,100250.80
2023-05-20T20:36:12.530Z,100251.46
2023-05-20T20:38:39.742Z,100250.45
2023-05-20T20:41:09.624Z,100250.73
2023-05-20T20:43:38.295Z,100250.51
2023-05-20T20:46:06.503Z,100255.64
2023-05-20T20:48:34.821Z,100254.66
2023-05-20T20:51:02.330Z,100254.07
2023-05-20T20:53:29.457Z,100255.35
2023-05-20T20:55:57.194Z,100257.48
2023-05-20T20:58:24.644Z,100252.73
2023-05-20T21:00:53.246Z,100248.27
2023-05-20T21:03:24.180Z,100249.14
2023-05-20T21:05:52.086Z,100243.66
2023-05-20T21:08:22.324Z,100239.61
2023-05-20T21:10:49.477Z,100241.46
2023-05-20T21:13:16.594Z,100244.86
2023-05-20T21:15:46.633Z,100248.77
2023-05-20T21:18:16.744Z,100247.37
2023-05-20T21:20:43.777Z,100246.71
2023-05-20T21:23:10.825Z,100245.51
2023-05-20T21:25:37.967Z,100244.11
2023-05-20T21:28:05.213Z,100250.80
2023-05-20T21:30:32.282Z,100253.54
2023-05-20T21:32:59.483Z,100253.45
2023-05-20T21:35:26.659Z,100258.96
2023-05-20T21:37:53.748Z,100258.16
2023-05-20T21:40:20.868Z,100260.19
2023-05-20T21:42:49.153Z,100258.66
2023-05-20T21:45:17.792Z,100255.89
2023-05-20T21:47:46.490Z,100256.35
2023-05-20T21:50:13.781Z,100252.43
2023-05-20T21:52:41.393Z,100251.21
2023-05-20T21:55:09.796Z,100248.65
2023-05-20T21:57:37.661Z,100253.06
2023-05-20T22:00:10.583Z,100251.77
2023-05-20T22:02:37.960Z,100253.64
2023-05-20T22:05:05.476Z,100252.19
2023-05-20T22:07:33.353Z,100247.98
2023-05-20T22:10:02.529Z,100243.04
2023-05-20T22:12:29.686Z,100237.27
2023-05-20T22:14:57.140Z,100240.52
2023-05-20T22:17:25.039Z,100241.91
2023-05-20T22:19:53.775Z,100241.67
2023-05-20T22:22:21.175Z,100243.97
2023-05-20T22:24:48.239Z,100242.20
2023-05-20T22:27:15.350Z,100240.95
2023-05-20T22:29:42.464Z,100240.48
2023-05-20T22:32:09.581Z,100242.17
2023-05-20T22:34:36.600Z,100247.92
2023-05-20T22:37:07.257Z,100245.97
2023-05-20T22:39:34.408Z,100244.30
2023-05-20T22:42:01.485Z,100239.39
2023-05-20T22:44:28.641Z,100246.11
2023-05-20T22:46:55.859Z,100242.95
2023-05-20T22:49:24.098Z,100243.09
2023-05-20T22:51:53.012Z,100236.98
2023-05-20T22:54:20.261Z,100228.65
2023-05-20T22:56:47.375Z,100231.39
2023-05-20T22:59:14.550Z,100228.02
2023-05-20T23:01:42.503Z,100229.87
2023-05-20T23:04:09.606Z,100226.85
2023-05-20T23:06:38.345Z,100226.54
2023-05-20T23:09:06.298Z,100228.98
2023-05-20T23:11:33.338Z,100234.67
2023-05-20T23:14:00.559Z,100240.45
2023-05-20T23:16:28.155Z,100243.30
2023-05-20T23:18:56.238Z,100240.31
2023-05-20T23:21:23.816Z,100237.58
2023-05-20T23:23:50.924Z,100230.39
2023-05-20T23:26:17.945Z,100229.55
2023-05-20T23:28:45.029Z,100225.98
2023-05-20T23:31:12.356Z,100225.14
2023-05-20T23:33:39.769Z,100227.10
2023-05-20T23:36:09.578Z,100226.28
2023-05-20T23:38:36.702Z,100228.50
2023-05-20T23:41:04.002Z,100232.19
2023-05-20T23:43:31.277Z,100232.45
2023-05-20T23:45:58.401Z,100233.73
2023-05-20T23:48:26.641Z,100234.02
2023-05-20T23:50:53.962Z,100234.30
2023-05-20T23:53:21.460Z,100229.34
2023-05-20T23:55:49.701Z,100230.61
2023-05-20T23:58:16.992Z,100225.71
